sensor_id;sensor_type;location;lat;lon;timestamp;temperature;humidity
28548;DHT22;15750;49.600;8.746;2022-09-09T00:00:14;24.60;50.40
28548;DHT22;15750;49.600;8.746;2022-09-09T00:03:12;24.60;50.60
28548;DHT22;15750;49.600;8.746;2022-09-09T00:06:08;24.60;50.70
28548;DHT22;15750;49.600;8.746;2022-09-09T00:09:04;24.60;50.70
28548;DHT22;15750;49.600;8.746;2022-09-09T00:12:00;24.60;50.80
28548;DHT22;15750;49.600;8.746;2022-09-09T00:14:53;24.60;50.80
28548;DHT22;15750;49.600;8.746;2022-09-09T00:17:47;24.60;50.80
28548;DHT22;15750;49.600;8.746;2022-09-09T00:20:43;24.60;50.90
28548;DHT22;15750;49.600;8.746;2022-09-09T00:23:38;24.60;50.80
28548;DHT22;15750;49.600;8.746;2022-09-09T00:26:37;24.60;50.60
28548;DHT22;15750;49.600;8.746;2022-09-09T00:29:33;24.60;50.80
28548;DHT22;15750;49.600;8.746;2022-09-09T00:32:25;24.60;50.60
28548;DHT22;15750;49.600;8.746;2022-09-09T00:35:22;24.60;50.80
28548;DHT22;15750;49.600;8.746;2022-09-09T00:38:13;24.60;50.90
28548;DHT22;15750;49.600;8.746;2022-09-09T00:41:06;24.60;50.90
28548;DHT22;15750;49.600;8.746;2022-09-09T00:44:01;24.60;50.90
28548;DHT22;15750;49.600;8.746;2022-09-09T00:47:04;24.60;50.90
28548;DHT22;15750;49.600;8.746;2022-09-09T00:50:00;24.60;50.90
28548;DHT22;15750;49.600;8.746;2022-09-09T00:52:59;24.60;50.90
28548;DHT22;15750;49.600;8.746;2022-09-09T00:55:59;24.60;50.80
28548;DHT22;15750;49.600;8.746;2022-09-09T00:59:00;24.60;50.80
28548;DHT22;15750;49.600;8.746;2022-09-09T01:01:55;24.60;50.90
28548;DHT22;15750;49.600;8.746;2022-09-09T01:04:43;24.60;50.80
28548;DHT22;15750;49.600;8.746;2022-09-09T01:07:30;24.60;50.90
28548;DHT22;15750;49.600;8.746;2022-09-09T01:10:26;24.50;50.90
28548;DHT22;15750;49.600;8.746;2022-09-09T01:13:22;24.50;51.00
28548;DHT22;15750;49.600;8.746;2022-09-09T01:16:12;24.50;51.00
28548;DHT22;15750;49.600;8.746;2022-09-09T01:19:01;24.50;51.00
28548;DHT22;15750;49.600;8.746;2022-09-09T01:21:59;24.50;51.00
28548;DHT22;15750;49.600;8.746;2022-09-09T01:25:20;24.50;51.20
28548;DHT22;15750;49.600;8.746;2022-09-09T01:28:22;24.50;51.20
28548;DHT22;15750;49.600;8.746;2022-09-09T01:31:20;24.50;51.20
28548;DHT22;15750;49.600;8.746;2022-09-09T01:34:11;24.50;51.20
28548;DHT22;15750;49.600;8.746;2022-09-09T01:37:03;24.50;51.20
28548;DHT22;15750;49.600;8.746;2022-09-09T01:39:52;24.50;51.20
28548;DHT22;15750;49.600;8.746;2022-09-09T01:42:40;24.50;51.10
28548;DHT22;15750;49.600;8.746;2022-09-09T01:45:29;24.50;51.10
28548;DHT22;15750;49.600;8.746;2022-09-09T01:48:18;24.50;51.10
28548;DHT22;15750;49.600;8.746;2022-09-09T01:51:15;24.50;51.10
28548;DHT22;15750;49.600;8.746;2022-09-09T01:54:03;24.50;51.10
28548;DHT22;15750;49.600;8.746;2022-09-09T01:56:58;24.50;51.10
28548;DHT22;15750;49.600;8.746;2022-09-09T02:00:03;24.50;51.20
28548;DHT22;15750;49.600;8.746;2022-09-09T02:03:06;24.50;51.30
28548;DHT22;15750;49.600;8.746;2022-09-09T02:06:17;24.50;51.30
28548;DHT22;15750;49.600;8.746;2022-09-09T02:09:12;24.50;51.20
28548;DHT22;15750;49.600;8.746;2022-09-09T02:12:05;24.50;51.20
28548;DHT22;15750;49.600;8.746;2022-09-09T02:15:03;24.50;51.20
28548;DHT22;15750;49.600;8.746;2022-09-09T02:18:07;24.50;51.10
28548;DHT22;15750;49.600;8.746;2022-09-09T02:20:56;24.50;51.10
28548;DHT22;15750;49.600;8.746;2022-09-09T02:23:47;24.50;51.10
28548;DHT22;15750;49.600;8.746;2022-09-09T02:26:40;24.50;51.20
28548;DHT22;15750;49.600;8.746;2022-09-09T02:29:38;24.50;51.10
28548;DHT22;15750;49.600;8.746;2022-09-09T02:32:29;24.50;51.10
28548;DHT22;15750;49.600;8.746;2022-09-09T02:35:23;24.50;51.20
28548;DHT22;15750;49.600;8.746;2022-09-09T02:38:13;24.50;51.20
28548;DHT22;15750;49.600;8.746;2022-09-09T02:41:15;24.50;51.10
28548;DHT22;15750;49.600;8.746;2022-09-09T02:44:05;24.50;51.10
28548;DHT22;15750;49.600;8.746;2022-09-09T02:47:18;24.50;51.10
28548;DHT22;15750;49.600;8.746;2022-09-09T02:50:13;24.60;51.00
28548;DHT22;15750;49.600;8.746;2022-09-09T02:53:09;24.60;51.00
28548;DHT22;15750;49.600;8.746;2022-09-09T02:56:05;24.60;51.20
28548;DHT22;15750;49.600;8.746;2022-09-09T02:59:02;24.60;51.20
28548;DHT22;15750;49.600;8.746;2022-09-09T03:01:52;24.60;50.90
28548;DHT22;15750;49.600;8.746;2022-09-09T03:04:40;24.60;50.90
28548;DHT22;15750;49.600;8.746;2022-09-09T03:07:31;24.60;50.90
28548;DHT22;15750;49.600;8.746;2022-09-09T03:10:20;24.60;50.90
28548;DHT22;15750;49.600;8.746;2022-09-09T03:13:08;24.60;50.90
28548;DHT22;15750;49.600;8.746;2022-09-09T03:15:57;24.60;50.90
28548;DHT22;15750;49.600;8.746;2022-09-09T03:18:45;24.60;50.90
28548;DHT22;15750;49.600;8.746;2022-09-09T03:21:33;24.60;50.80
28548;DHT22;15750;49.600;8.746;2022-09-09T03:24:20;24.70;50.80
28548;DHT22;15750;49.600;8.746;2022-09-09T03:27:09;24.70;50.80
28548;DHT22;15750;49.600;8.746;2022-09-09T03:29:58;24.70;50.90
28548;DHT22;15750;49.600;8.746;2022-09-09T03:32:49;24.70;50.80
28548;DHT22;15750;49.600;8.746;2022-09-09T03:35:37;24.70;50.70
28548;DHT22;15750;49.600;8.746;2022-09-09T03:38:25;24.70;50.80
28548;DHT22;15750;49.600;8.746;2022-09-09T03:41:14;24.70;50.70
28548;DHT22;15750;49.600;8.746;2022-09-09T03:44:03;24.70;50.70
28548;DHT22;15750;49.600;8.746;2022-09-09T03:46:55;24.70;50.70
28548;DHT22;15750;49.600;8.746;2022-09-09T03:49:43;24.70;50.70
28548;DHT22;15750;49.600;8.746;2022-09-09T03:52:30;24.70;50.70
28548;DHT22;15750;49.600;8.746;2022-09-09T03:55:17;24.70;50.70
28548;DHT22;15750;49.600;8.746;2022-09-09T03:58:05;24.70;50.70
28548;DHT22;15750;49.600;8.746;2022-09-09T04:00:55;24.70;50.70
28548;DHT22;15750;49.600;8.746;2022-09-09T04:03:45;24.70;50.80
28548;DHT22;15750;49.600;8.746;2022-09-09T04:06:32;24.70;50.70
28548;DHT22;15750;49.600;8.746;2022-09-09T04:09:19;24.70;50.60
28548;DHT22;15750;49.600;8.746;2022-09-09T04:12:08;24.70;50.60
28548;DHT22;15750;49.600;8.746;2022-09-09T04:14:56;24.70;50.40
28548;DHT22;15750;49.600;8.746;2022-09-09T04:17:45;24.70;50.40
28548;DHT22;15750;49.600;8.746;2022-09-09T04:20:33;24.70;50.40
28548;DHT22;15750;49.600;8.746;2022-09-09T04:23:21;24.60;50.50
28548;DHT22;15750;49.600;8.746;2022-09-09T04:26:10;24.70;50.60
28548;DHT22;15750;49.600;8.746;2022-09-09T04:28:58;24.70;50.40
28548;DHT22;15750;49.600;8.746;2022-09-09T04:31:46;24.70;50.50
28548;DHT22;15750;49.600;8.746;2022-09-09T04:34:34;24.70;50.50
28548;DHT22;15750;49.600;8.746;2022-09-09T04:37:22;24.60;50.40
28548;DHT22;15750;49.600;8.746;2022-09-09T04:40:10;24.70;50.50
28548;DHT22;15750;49.600;8.746;2022-09-09T04:42:59;24.70;50.40
28548;DHT22;15750;49.600;8.746;2022-09-09T04:45:48;24.70;50.50
28548;DHT22;15750;49.600;8.746;2022-09-09T04:48:39;24.70;50.50
28548;DHT22;15750;49.600;8.746;2022-09-09T04:51:29;24.60;50.40
28548;DHT22;15750;49.600;8.746;2022-09-09T04:54:17;24.60;50.40
28548;DHT22;15750;49.600;8.746;2022-09-09T04:57:05;24.70;50.30
28548;DHT22;15750;49.600;8.746;2022-09-09T04:59:52;24.70;50.40
28548;DHT22;15750;49.600;8.746;2022-09-09T05:02:40;24.70;50.40
28548;DHT22;15750;49.600;8.746;2022-09-09T05:05:28;24.60;50.40
28548;DHT22;15750;49.600;8.746;2022-09-09T05:08:17;24.60;50.30
28548;DHT22;15750;49.600;8.746;2022-09-09T05:11:12;24.60;50.40
28548;DHT22;15750;49.600;8.746;2022-09-09T05:14:01;24.60;50.30
28548;DHT22;15750;49.600;8.746;2022-09-09T05:16:50;24.60;50.20
28548;DHT22;15750;49.600;8.746;2022-09-09T05:19:39;24.60;50.20
28548;DHT22;15750;49.600;8.746;2022-09-09T05:22:26;24.60;50.40
28548;DHT22;15750;49.600;8.746;2022-09-09T05:25:15;24.60;50.40
28548;DHT22;15750;49.600;8.746;2022-09-09T05:28:02;24.60;50.40
28548;DHT22;15750;49.600;8.746;2022-09-09T05:30:56;24.60;50.50
28548;DHT22;15750;49.600;8.746;2022-09-09T05:33:47;24.60;50.40
28548;DHT22;15750;49.600;8.746;2022-09-09T05:36:35;24.60;50.40
28548;DHT22;15750;49.600;8.746;2022-09-09T05:39:22;24.60;50.50
28548;DHT22;15750;49.600;8.746;2022-09-09T05:42:11;24.60;50.40
28548;DHT22;15750;49.600;8.746;2022-09-09T05:44:58;24.60;50.60
28548;DHT22;15750;49.600;8.746;2022-09-09T05:47:51;24.60;50.60
28548;DHT22;15750;49.600;8.746;2022-09-09T05:50:40;24.60;50.70
28548;DHT22;15750;49.600;8.746;2022-09-09T05:53:28;24.60;50.60
28548;DHT22;15750;49.600;8.746;2022-09-09T05:56:19;24.60;50.60
28548;DHT22;15750;49.600;8.746;2022-09-09T05:59:09;24.60;50.60
28548;DHT22;15750;49.600;8.746;2022-09-09T06:01:57;24.60;50.60
28548;DHT22;15750;49.600;8.746;2022-09-09T06:04:51;24.60;50.60
28548;DHT22;15750;49.600;8.746;2022-09-09T06:07:43;24.60;50.70
28548;DHT22;15750;49.600;8.746;2022-09-09T06:10:31;24.70;50.70
28548;DHT22;15750;49.600;8.746;2022-09-09T06:13:19;24.60;50.70
28548;DHT22;15750;49.600;8.746;2022-09-09T06:16:09;24.70;50.70
28548;DHT22;15750;49.600;8.746;2022-09-09T06:18:58;24.70;50.70
28548;DHT22;15750;49.600;8.746;2022-09-09T06:21:47;24.70;50.70
28548;DHT22;15750;49.600;8.746;2022-09-09T06:24:36;24.60;50.70
28548;DHT22;15750;49.600;8.746;2022-09-09T06:27:27;24.60;50.70
28548;DHT22;15750;49.600;8.746;2022-09-09T06:30:14;24.60;50.70
28548;DHT22;15750;49.600;8.746;2022-09-09T06:33:04;24.70;50.70
28548;DHT22;15750;49.600;8.746;2022-09-09T06:35:52;24.70;50.80
28548;DHT22;15750;49.600;8.746;2022-09-09T06:38:40;24.70;50.80
28548;DHT22;15750;49.600;8.746;2022-09-09T06:41:31;24.70;50.80
28548;DHT22;15750;49.600;8.746;2022-09-09T06:44:21;24.70;50.90
28548;DHT22;15750;49.600;8.746;2022-09-09T06:47:08;24.70;50.80
28548;DHT22;15750;49.600;8.746;2022-09-09T06:49:59;24.70;50.90
28548;DHT22;15750;49.600;8.746;2022-09-09T06:52:50;24.70;50.90
28548;DHT22;15750;49.600;8.746;2022-09-09T06:55:38;24.70;50.90
28548;DHT22;15750;49.600;8.746;2022-09-09T06:58:27;24.70;51.00
28548;DHT22;15750;49.600;8.746;2022-09-09T07:01:18;24.70;51.00
28548;DHT22;15750;49.600;8.746;2022-09-09T07:04:06;24.70;51.10
28548;DHT22;15750;49.600;8.746;2022-09-09T07:06:58;24.70;51.20
28548;DHT22;15750;49.600;8.746;2022-09-09T07:09:46;24.80;51.30
28548;DHT22;15750;49.600;8.746;2022-09-09T07:12:34;24.80;51.30
28548;DHT22;15750;49.600;8.746;2022-09-09T07:15:23;24.80;51.30
28548;DHT22;15750;49.600;8.746;2022-09-09T07:18:12;24.80;51.30
28548;DHT22;15750;49.600;8.746;2022-09-09T07:20:59;24.90;52.20
28548;DHT22;15750;49.600;8.746;2022-09-09T07:23:49;24.80;51.30
28548;DHT22;15750;49.600;8.746;2022-09-09T07:26:38;24.90;51.40
28548;DHT22;15750;49.600;8.746;2022-09-09T07:29:26;24.90;51.40
28548;DHT22;15750;49.600;8.746;2022-09-09T07:32:13;24.90;51.30
28548;DHT22;15750;49.600;8.746;2022-09-09T07:35:01;24.90;51.30
28548;DHT22;15750;49.600;8.746;2022-09-09T07:37:48;24.90;51.30
28548;DHT22;15750;49.600;8.746;2022-09-09T07:40:39;25.00;51.30
28548;DHT22;15750;49.600;8.746;2022-09-09T07:43:26;25.00;51.30
28548;DHT22;15750;49.600;8.746;2022-09-09T07:46:15;25.00;51.30
28548;DHT22;15750;49.600;8.746;2022-09-09T07:49:05;25.00;51.20
28548;DHT22;15750;49.600;8.746;2022-09-09T07:51:54;25.10;51.30
28548;DHT22;15750;49.600;8.746;2022-09-09T07:54:41;25.10;51.30
28548;DHT22;15750;49.600;8.746;2022-09-09T07:57:33;25.10;51.30
28548;DHT22;15750;49.600;8.746;2022-09-09T08:00:22;25.10;51.20
28548;DHT22;15750;49.600;8.746;2022-09-09T08:03:13;25.10;51.20
28548;DHT22;15750;49.600;8.746;2022-09-09T08:06:02;25.10;51.10
28548;DHT22;15750;49.600;8.746;2022-09-09T08:08:50;25.10;51.10
28548;DHT22;15750;49.600;8.746;2022-09-09T08:11:40;25.10;51.00
28548;DHT22;15750;49.600;8.746;2022-09-09T08:14:30;25.10;51.10
28548;DHT22;15750;49.600;8.746;2022-09-09T08:17:21;25.10;51.30
28548;DHT22;15750;49.600;8.746;2022-09-09T08:20:09;25.10;51.30
28548;DHT22;15750;49.600;8.746;2022-09-09T08:22:57;25.10;51.30
28548;DHT22;15750;49.600;8.746;2022-09-09T08:25:44;25.20;51.30
28548;DHT22;15750;49.600;8.746;2022-09-09T08:28:32;25.20;51.30
28548;DHT22;15750;49.600;8.746;2022-09-09T08:31:22;25.20;51.10
28548;DHT22;15750;49.600;8.746;2022-09-09T08:34:11;25.20;51.10
28548;DHT22;15750;49.600;8.746;2022-09-09T08:37:04;25.20;51.10
28548;DHT22;15750;49.600;8.746;2022-09-09T08:39:55;25.20;51.10
28548;DHT22;15750;49.600;8.746;2022-09-09T08:42:44;25.30;51.00
28548;DHT22;15750;49.600;8.746;2022-09-09T08:45:42;25.30;51.40
28548;DHT22;15750;49.600;8.746;2022-09-09T08:48:47;25.20;51.60
28548;DHT22;15750;49.600;8.746;2022-09-09T08:51:39;25.20;51.80
28548;DHT22;15750;49.600;8.746;2022-09-09T08:54:32;25.20;51.70
28548;DHT22;15750;49.600;8.746;2022-09-09T08:57:39;25.20;52.00
28548;DHT22;15750;49.600;8.746;2022-09-09T09:00:31;25.20;51.90
28548;DHT22;15750;49.600;8.746;2022-09-09T09:03:26;25.20;52.40
28548;DHT22;15750;49.600;8.746;2022-09-09T09:06:26;25.20;52.40
28548;DHT22;15750;49.600;8.746;2022-09-09T09:09:35;25.20;52.60
28548;DHT22;15750;49.600;8.746;2022-09-09T09:12:29;25.20;52.50
28548;DHT22;15750;49.600;8.746;2022-09-09T09:15:22;25.20;52.60
28548;DHT22;15750;49.600;8.746;2022-09-09T09:18:17;25.20;52.60
28548;DHT22;15750;49.600;8.746;2022-09-09T09:21:08;25.20;52.50
28548;DHT22;15750;49.600;8.746;2022-09-09T09:24:05;25.20;52.70
28548;DHT22;15750;49.600;8.746;2022-09-09T09:27:12;25.20;52.60
28548;DHT22;15750;49.600;8.746;2022-09-09T09:30:14;25.20;52.50
28548;DHT22;15750;49.600;8.746;2022-09-09T09:33:23;25.30;52.80
28548;DHT22;15750;49.600;8.746;2022-09-09T09:36:14;25.30;52.80
28548;DHT22;15750;49.600;8.746;2022-09-09T09:39:05;25.30;52.70
28548;DHT22;15750;49.600;8.746;2022-09-09T09:42:17;25.30;52.70
28548;DHT22;15750;49.600;8.746;2022-09-09T09:45:16;25.30;53.00
28548;DHT22;15750;49.600;8.746;2022-09-09T09:48:12;25.30;53.30
28548;DHT22;15750;49.600;8.746;2022-09-09T09:51:02;25.40;53.10
28548;DHT22;15750;49.600;8.746;2022-09-09T09:53:53;25.40;52.70
28548;DHT22;15750;49.600;8.746;2022-09-09T09:56:43;25.40;52.50
28548;DHT22;15750;49.600;8.746;2022-09-09T09:59:36;25.40;52.30
28548;DHT22;15750;49.600;8.746;2022-09-09T10:02:45;25.40;52.20
28548;DHT22;15750;49.600;8.746;2022-09-09T10:05:45;25.40;52.20
28548;DHT22;15750;49.600;8.746;2022-09-09T10:08:44;25.40;52.10
28548;DHT22;15750;49.600;8.746;2022-09-09T10:11:41;25.40;51.90
28548;DHT22;15750;49.600;8.746;2022-09-09T10:14:39;25.40;51.70
28548;DHT22;15750;49.600;8.746;2022-09-09T10:17:34;25.40;51.50
28548;DHT22;15750;49.600;8.746;2022-09-09T10:20:32;25.40;51.60
28548;DHT22;15750;49.600;8.746;2022-09-09T10:23:33;25.40;51.60
28548;DHT22;15750;49.600;8.746;2022-09-09T10:26:37;25.40;51.70
28548;DHT22;15750;49.600;8.746;2022-09-09T10:29:37;25.40;52.30
28548;DHT22;15750;49.600;8.746;2022-09-09T10:32:37;25.40;51.80
28548;DHT22;15750;49.600;8.746;2022-09-09T10:35:30;25.40;51.70
28548;DHT22;15750;49.600;8.746;2022-09-09T10:38:25;25.40;51.80
28548;DHT22;15750;49.600;8.746;2022-09-09T10:41:20;25.30;51.80
28548;DHT22;15750;49.600;8.746;2022-09-09T10:44:31;25.30;52.20
28548;DHT22;15750;49.600;8.746;2022-09-09T10:47:38;25.20;52.20
28548;DHT22;15750;49.600;8.746;2022-09-09T10:50:49;25.30;52.30
28548;DHT22;15750;49.600;8.746;2022-09-09T10:53:57;25.20;52.70
28548;DHT22;15750;49.600;8.746;2022-09-09T10:56:55;25.20;52.90
28548;DHT22;15750;49.600;8.746;2022-09-09T10:59:49;25.30;52.90
28548;DHT22;15750;49.600;8.746;2022-09-09T11:02:43;25.30;53.10
28548;DHT22;15750;49.600;8.746;2022-09-09T11:05:33;25.30;53.20
28548;DHT22;15750;49.600;8.746;2022-09-09T11:08:26;25.30;53.10
28548;DHT22;15750;49.600;8.746;2022-09-09T11:11:18;25.40;53.30
28548;DHT22;15750;49.600;8.746;2022-09-09T11:14:13;25.40;53.10
28548;DHT22;15750;49.600;8.746;2022-09-09T11:17:10;25.40;53.30
28548;DHT22;15750;49.600;8.746;2022-09-09T11:19:59;25.40;53.50
28548;DHT22;15750;49.600;8.746;2022-09-09T11:22:50;25.50;53.40
28548;DHT22;15750;49.600;8.746;2022-09-09T11:25:43;25.50;53.50
28548;DHT22;15750;49.600;8.746;2022-09-09T11:28:43;25.50;53.70
28548;DHT22;15750;49.600;8.746;2022-09-09T11:31:45;25.60;53.40
28548;DHT22;15750;49.600;8.746;2022-09-09T11:34:43;25.60;53.50
28548;DHT22;15750;49.600;8.746;2022-09-09T11:41:02;25.60;53.00
28548;DHT22;15750;49.600;8.746;2022-09-09T11:43:53;25.70;53.10
28548;DHT22;15750;49.600;8.746;2022-09-09T11:46:41;25.70;52.80
28548;DHT22;15750;49.600;8.746;2022-09-09T11:49:30;25.80;52.80
28548;DHT22;15750;49.600;8.746;2022-09-09T11:52:37;25.70;53.40
28548;DHT22;15750;49.600;8.746;2022-09-09T11:55:27;25.80;52.40
28548;DHT22;15750;49.600;8.746;2022-09-09T11:58:18;25.80;52.30
28548;DHT22;15750;49.600;8.746;2022-09-09T12:01:33;25.80;52.10
28548;DHT22;15750;49.600;8.746;2022-09-09T12:04:32;25.80;51.60
28548;DHT22;15750;49.600;8.746;2022-09-09T12:07:30;25.90;51.50
28548;DHT22;15750;49.600;8.746;2022-09-09T12:10:23;25.90;51.70
28548;DHT22;15750;49.600;8.746;2022-09-09T12:13:17;25.90;51.80
28548;DHT22;15750;49.600;8.746;2022-09-09T12:16:29;26.00;51.70
28548;DHT22;15750;49.600;8.746;2022-09-09T12:19:21;26.00;51.30
28548;DHT22;15750;49.600;8.746;2022-09-09T12:22:17;26.00;51.10
28548;DHT22;15750;49.600;8.746;2022-09-09T12:25:21;25.90;50.50
28548;DHT22;15750;49.600;8.746;2022-09-09T12:28:17;26.00;50.80
28548;DHT22;15750;49.600;8.746;2022-09-09T12:31:10;25.90;50.40
28548;DHT22;15750;49.600;8.746;2022-09-09T12:34:10;25.90;50.40
28548;DHT22;15750;49.600;8.746;2022-09-09T12:37:02;25.90;50.50
28548;DHT22;15750;49.600;8.746;2022-09-09T12:39:54;25.90;50.30
28548;DHT22;15750;49.600;8.746;2022-09-09T12:42:44;25.90;50.10
28548;DHT22;15750;49.600;8.746;2022-09-09T12:45:32;25.90;50.10
28548;DHT22;15750;49.600;8.746;2022-09-09T12:48:30;25.90;50.00
28548;DHT22;15750;49.600;8.746;2022-09-09T12:51:24;25.90;50.20
28548;DHT22;15750;49.600;8.746;2022-09-09T12:54:14;25.90;50.80
28548;DHT22;15750;49.600;8.746;2022-09-09T12:57:02;25.90;50.90
28548;DHT22;15750;49.600;8.746;2022-09-09T12:59:51;25.80;51.20
28548;DHT22;15750;49.600;8.746;2022-09-09T13:02:47;25.80;50.70
28548;DHT22;15750;49.600;8.746;2022-09-09T13:05:37;25.70;50.40
28548;DHT22;15750;49.600;8.746;2022-09-09T13:08:25;25.60;50.50
28548;DHT22;15750;49.600;8.746;2022-09-09T13:11:15;25.60;50.80
28548;DHT22;15750;49.600;8.746;2022-09-09T13:14:04;25.60;50.90
28548;DHT22;15750;49.600;8.746;2022-09-09T13:16:57;25.50;51.10
28548;DHT22;15750;49.600;8.746;2022-09-09T13:19:46;25.50;51.50
28548;DHT22;15750;49.600;8.746;2022-09-09T13:22:35;25.40;51.40
28548;DHT22;15750;49.600;8.746;2022-09-09T13:25:26;25.40;51.40
28548;DHT22;15750;49.600;8.746;2022-09-09T13:28:22;25.40;51.60
28548;DHT22;15750;49.600;8.746;2022-09-09T13:31:20;25.40;51.60
28548;DHT22;15750;49.600;8.746;2022-09-09T13:34:14;25.30;51.60
28548;DHT22;15750;49.600;8.746;2022-09-09T13:37:22;25.40;51.60
28548;DHT22;15750;49.600;8.746;2022-09-09T13:40:17;25.30;51.60
28548;DHT22;15750;49.600;8.746;2022-09-09T13:43:17;25.30;51.50
28548;DHT22;15750;49.600;8.746;2022-09-09T13:46:25;25.30;51.80
28548;DHT22;15750;49.600;8.746;2022-09-09T13:49:22;25.30;51.80
28548;DHT22;15750;49.600;8.746;2022-09-09T13:52:11;25.20;51.90
28548;DHT22;15750;49.600;8.746;2022-09-09T13:55:00;25.20;51.90
28548;DHT22;15750;49.600;8.746;2022-09-09T13:57:51;25.20;51.80
28548;DHT22;15750;49.600;8.746;2022-09-09T14:00:39;25.20;52.60
28548;DHT22;15750;49.600;8.746;2022-09-09T14:03:26;25.10;51.90
28548;DHT22;15750;49.600;8.746;2022-09-09T14:06:15;25.20;52.00
28548;DHT22;15750;49.600;8.746;2022-09-09T14:09:04;25.10;52.20
28548;DHT22;15750;49.600;8.746;2022-09-09T14:11:51;25.10;52.30
28548;DHT22;15750;49.600;8.746;2022-09-09T14:14:40;25.10;52.30
28548;DHT22;15750;49.600;8.746;2022-09-09T14:17:28;25.10;52.40
28548;DHT22;15750;49.600;8.746;2022-09-09T14:20:16;25.10;52.60
28548;DHT22;15750;49.600;8.746;2022-09-09T14:23:07;25.10;52.70
28548;DHT22;15750;49.600;8.746;2022-09-09T14:25:57;25.10;52.80
28548;DHT22;15750;49.600;8.746;2022-09-09T14:28:44;25.10;52.80
28548;DHT22;15750;49.600;8.746;2022-09-09T14:31:40;25.10;53.00
28548;DHT22;15750;49.600;8.746;2022-09-09T14:34:27;25.10;53.10
28548;DHT22;15750;49.600;8.746;2022-09-09T14:37:15;25.10;53.10
28548;DHT22;15750;49.600;8.746;2022-09-09T14:40:04;25.10;53.20
28548;DHT22;15750;49.600;8.746;2022-09-09T14:42:53;25.10;53.30
28548;DHT22;15750;49.600;8.746;2022-09-09T14:45:41;25.20;53.40
28548;DHT22;15750;49.600;8.746;2022-09-09T14:48:29;25.20;53.40
28548;DHT22;15750;49.600;8.746;2022-09-09T14:51:18;25.20;53.50
28548;DHT22;15750;49.600;8.746;2022-09-09T14:54:07;25.20;53.40
28548;DHT22;15750;49.600;8.746;2022-09-09T14:56:57;25.20;53.40
28548;DHT22;15750;49.600;8.746;2022-09-09T14:59:44;25.20;53.60
28548;DHT22;15750;49.600;8.746;2022-09-09T15:02:32;25.20;53.40
28548;DHT22;15750;49.600;8.746;2022-09-09T15:05:19;25.20;53.40
28548;DHT22;15750;49.600;8.746;2022-09-09T15:08:06;25.20;53.40
28548;DHT22;15750;49.600;8.746;2022-09-09T15:10:59;25.20;53.50
28548;DHT22;15750;49.600;8.746;2022-09-09T15:13:51;25.20;53.70
28548;DHT22;15750;49.600;8.746;2022-09-09T15:16:39;25.20;53.70
28548;DHT22;15750;49.600;8.746;2022-09-09T15:19:26;25.30;53.50
28548;DHT22;15750;49.600;8.746;2022-09-09T15:22:13;25.30;53.50
28548;DHT22;15750;49.600;8.746;2022-09-09T15:25:00;25.20;53.40
28548;DHT22;15750;49.600;8.746;2022-09-09T15:27:48;25.20;53.30
28548;DHT22;15750;49.600;8.746;2022-09-09T15:30:37;25.20;53.10
28548;DHT22;15750;49.600;8.746;2022-09-09T15:33:24;25.20;53.20
28548;DHT22;15750;49.600;8.746;2022-09-09T15:36:17;25.30;53.30
28548;DHT22;15750;49.600;8.746;2022-09-09T15:39:07;25.20;53.40
28548;DHT22;15750;49.600;8.746;2022-09-09T15:41:58;25.20;53.10
28548;DHT22;15750;49.600;8.746;2022-09-09T15:44:46;25.20;53.00
28548;DHT22;15750;49.600;8.746;2022-09-09T15:47:35;25.20;53.00
28548;DHT22;15750;49.600;8.746;2022-09-09T15:50:22;25.20;52.80
28548;DHT22;15750;49.600;8.746;2022-09-09T15:53:09;25.20;52.70
28548;DHT22;15750;49.600;8.746;2022-09-09T15:55:56;25.10;52.70
28548;DHT22;15750;49.600;8.746;2022-09-09T15:58:44;25.20;52.50
28548;DHT22;15750;49.600;8.746;2022-09-09T16:01:32;25.10;52.40
28548;DHT22;15750;49.600;8.746;2022-09-09T16:04:22;25.10;52.50
28548;DHT22;15750;49.600;8.746;2022-09-09T16:07:10;25.10;52.20
28548;DHT22;15750;49.600;8.746;2022-09-09T16:09:57;25.10;52.20
28548;DHT22;15750;49.600;8.746;2022-09-09T16:12:44;25.10;52.10
28548;DHT22;15750;49.600;8.746;2022-09-09T16:15:32;25.00;52.00
28548;DHT22;15750;49.600;8.746;2022-09-09T16:18:19;25.00;52.00
28548;DHT22;15750;49.600;8.746;2022-09-09T16:21:13;24.90;51.80
28548;DHT22;15750;49.600;8.746;2022-09-09T16:24:02;24.90;52.00
28548;DHT22;15750;49.600;8.746;2022-09-09T16:26:53;24.90;52.20
28548;DHT22;15750;49.600;8.746;2022-09-09T16:29:40;24.90;52.20
28548;DHT22;15750;49.600;8.746;2022-09-09T16:32:28;24.90;52.30
28548;DHT22;15750;49.600;8.746;2022-09-09T16:35:15;24.80;52.30
28548;DHT22;15750;49.600;8.746;2022-09-09T16:38:06;24.80;52.40
28548;DHT22;15750;49.600;8.746;2022-09-09T16:40:59;24.80;52.40
28548;DHT22;15750;49.600;8.746;2022-09-09T16:43:46;24.80;53.20
28548;DHT22;15750;49.600;8.746;2022-09-09T16:46:35;24.80;52.30
28548;DHT22;15750;49.600;8.746;2022-09-09T16:49:24;24.80;52.90
28548;DHT22;15750;49.600;8.746;2022-09-09T16:52:13;24.80;52.50
28548;DHT22;15750;49.600;8.746;2022-09-09T16:55:07;24.80;52.50
28548;DHT22;15750;49.600;8.746;2022-09-09T16:57:55;24.80;52.50
28548;DHT22;15750;49.600;8.746;2022-09-09T17:00:42;24.70;52.50
28548;DHT22;15750;49.600;8.746;2022-09-09T17:03:29;24.70;52.40
28548;DHT22;15750;49.600;8.746;2022-09-09T17:06:17;24.70;52.50
28548;DHT22;15750;49.600;8.746;2022-09-09T17:09:06;24.70;52.50
28548;DHT22;15750;49.600;8.746;2022-09-09T17:11:55;24.70;52.60
28548;DHT22;15750;49.600;8.746;2022-09-09T17:14:42;24.70;52.50
28548;DHT22;15750;49.600;8.746;2022-09-09T17:17:30;24.70;52.50
28548;DHT22;15750;49.600;8.746;2022-09-09T17:20:18;24.70;52.60
28548;DHT22;15750;49.600;8.746;2022-09-09T17:23:05;24.70;52.60
28548;DHT22;15750;49.600;8.746;2022-09-09T17:25:56;24.70;52.50
28548;DHT22;15750;49.600;8.746;2022-09-09T17:28:45;24.70;52.50
28548;DHT22;15750;49.600;8.746;2022-09-09T17:31:32;24.70;52.60
28548;DHT22;15750;49.600;8.746;2022-09-09T17:34:20;24.70;52.60
28548;DHT22;15750;49.600;8.746;2022-09-09T17:37:07;24.70;52.40
28548;DHT22;15750;49.600;8.746;2022-09-09T17:39:55;24.70;52.40
28548;DHT22;15750;49.600;8.746;2022-09-09T17:42:43;24.60;52.30
28548;DHT22;15750;49.600;8.746;2022-09-09T17:45:31;24.60;52.40
28548;DHT22;15750;49.600;8.746;2022-09-09T17:48:19;24.60;52.50
28548;DHT22;15750;49.600;8.746;2022-09-09T17:51:08;24.60;52.60
28548;DHT22;15750;49.600;8.746;2022-09-09T17:53:58;24.60;52.60
28548;DHT22;15750;49.600;8.746;2022-09-09T17:56:47;24.60;52.50
28548;DHT22;15750;49.600;8.746;2022-09-09T17:59:35;24.60;52.50
28548;DHT22;15750;49.600;8.746;2022-09-09T18:02:23;24.50;52.50
28548;DHT22;15750;49.600;8.746;2022-09-09T18:05:11;24.50;52.70
28548;DHT22;15750;49.600;8.746;2022-09-09T18:07:58;24.50;52.70